RJAN(METAR)
08/22 17:00
RJAN 220800Z 27008KT 9999 FEW010 BKNXXX 29/26 Q1012 RMK A2991=
戻る
トップページへ戻る
IMOC Co,.Ltd.